createdAt,value
2023-02-08T00:01:28.010Z,11.20
2023-02-08T00:06:32.781Z,9.70
2023-02-08T00:11:35.976Z,10.93
2023-02-08T00:16:39.158Z,9.37
2023-02-08T00:21:43.718Z,8.17
2023-02-08T00:26:46.809Z,10.17
2023-02-08T00:31:49.992Z,9.10
2023-02-08T00:36:54.504Z,8.83
2023-02-08T00:41:57.704Z,9.13
2023-02-08T00:47:00.808Z,10.10
2023-02-08T00:52:05.350Z,9.00
2023-02-08T00:57:08.614Z,7.17
2023-02-08T01:02:12.096Z,8.67
2023-02-08T01:07:16.563Z,8.17
2023-02-08T01:12:19.674Z,7.67
2023-02-08T01:17:23.304Z,7.07
2023-02-08T01:22:29.652Z,8.70
2023-02-08T01:27:33.184Z,6.60
2023-02-08T01:32:36.386Z,7.40
2023-02-08T01:37:40.997Z,7.67
2023-02-08T01:42:44.126Z,8.03
2023-02-08T01:47:49.656Z,7.70
2023-02-08T01:52:54.716Z,7.93
2023-02-08T01:58:01.399Z,7.90
2023-02-08T02:03:05.754Z,9.07
2023-02-08T02:08:11.085Z,10.27
2023-02-08T02:13:17.759Z,10.50
2023-02-08T02:18:25.553Z,8.90
2023-02-08T02:23:56.091Z,8.53
2023-02-08T02:29:49.011Z,8.87
2023-02-08T02:35:01.436Z,9.97
2023-02-08T02:40:16.005Z,10.53
2023-02-08T02:45:27.825Z,11.20
2023-02-08T02:50:36.064Z,10.73
2023-02-08T02:55:44.558Z,11.57
2023-02-08T03:00:53.734Z,8.83
2023-02-08T03:06:01.831Z,12.67
2023-02-08T03:11:20.454Z,12.03
2023-02-08T03:16:32.820Z,10.33
2023-02-08T03:21:44.214Z,12.57
2023-02-08T03:26:54.628Z,11.73
2023-02-08T03:32:01.752Z,11.13
2023-02-08T03:37:10.910Z,13.53
2023-02-08T03:42:28.240Z,12.70
2023-02-08T03:47:35.296Z,12.87
2023-02-08T03:52:40.720Z,13.47
2023-02-08T03:57:49.353Z,13.50
2023-02-08T04:02:58.116Z,13.23
2023-02-08T04:08:02.592Z,12.93
2023-02-08T04:13:05.731Z,11.70
2023-02-08T04:18:08.930Z,13.30
2023-02-08T04:23:13.341Z,14.03
2023-02-08T04:28:16.609Z,14.17
2023-02-08T04:33:19.691Z,13.17
2023-02-08T04:38:24.140Z,12.07
2023-02-08T04:43:27.249Z,13.40
2023-02-08T04:48:30.583Z,14.10
2023-02-08T04:53:35.031Z,13.33
2023-02-08T04:58:38.162Z,13.03
2023-02-08T05:03:41.248Z,12.50
2023-02-08T05:08:45.756Z,13.80
2023-02-08T05:13:48.950Z,10.63
2023-02-08T05:18:52.029Z,12.23
2023-02-08T05:23:56.494Z,13.40
2023-02-08T05:28:59.754Z,13.53
2023-02-08T05:34:02.802Z,11.80
2023-02-08T05:39:07.368Z,11.77
2023-02-08T05:44:10.442Z,12.13
2023-02-08T05:49:13.800Z,12.27
2023-02-08T05:54:18.672Z,10.37
2023-02-08T05:59:21.773Z,14.23
2023-02-08T06:04:24.946Z,11.47
2023-02-08T06:09:29.471Z,11.77
2023-02-08T06:14:32.553Z,14.00
2023-02-08T06:19:35.630Z,11.50
2023-02-08T06:24:40.115Z,10.83
2023-02-08T06:29:44.187Z,11.40
2023-02-08T06:34:48.277Z,12.50
2023-02-08T06:39:52.711Z,12.63
2023-02-08T06:44:56.074Z,13.33
2023-02-08T06:49:59.184Z,13.60
2023-02-08T06:55:03.669Z,13.53
2023-02-08T07:00:07.756Z,11.30
2023-02-08T07:05:10.834Z,12.97
2023-02-08T07:10:15.622Z,13.27
2023-02-08T07:15:18.830Z,13.60
2023-02-08T07:20:22.053Z,13.57
2023-02-08T07:25:26.496Z,14.70
2023-02-08T07:30:29.905Z,14.00
2023-02-08T07:35:33.031Z,16.80
2023-02-08T07:40:37.530Z,13.30
2023-02-08T07:45:40.614Z,16.63
2023-02-08T07:50:43.676Z,14.87
2023-02-08T07:55:48.580Z,13.13
2023-02-08T08:00:51.673Z,13.70
2023-02-08T08:05:55.075Z,16.43
2023-02-08T08:10:59.548Z,15.23
2023-02-08T08:16:02.682Z,14.37
2023-02-08T08:21:06.391Z,15.73
2023-02-08T08:26:13.938Z,16.97
2023-02-08T08:31:19.115Z,17.87
2023-02-08T08:36:22.275Z,17.07
2023-02-08T08:41:27.310Z,16.87
2023-02-08T08:46:30.469Z,15.63
2023-02-08T08:51:35.505Z,15.77
2023-02-08T08:56:40.217Z,15.27
2023-02-08T09:01:43.327Z,15.97
2023-02-08T09:06:46.453Z,15.37
2023-02-08T09:11:51.382Z,18.17
2023-02-08T09:16:54.903Z,14.37
2023-02-08T09:21:58.041Z,17.17
2023-02-08T09:27:02.812Z,17.43
2023-02-08T09:32:06.132Z,16.60
2023-02-08T09:37:09.201Z,18.83
2023-02-08T09:42:39.426Z,17.47
2023-02-08T09:47:49.779Z,15.00
2023-02-08T09:52:58.190Z,16.23
2023-02-08T09:58:05.648Z,15.10
2023-02-08T10:03:24.753Z,15.40
2023-02-08T10:08:35.186Z,16.07
2023-02-08T10:14:01.313Z,15.93
2023-02-08T10:19:15.691Z,15.40
2023-02-08T10:24:41.750Z,13.17
2023-02-08T10:30:15.846Z,14.73
2023-02-08T10:35:26.924Z,14.97
2023-02-08T10:40:38.929Z,17.57
2023-02-08T10:45:50.687Z,14.63
2023-02-08T10:50:53.973Z,17.70
2023-02-08T10:55:57.142Z,15.63
2023-02-08T11:01:03.876Z,15.13
2023-02-08T11:06:17.116Z,13.93
2023-02-08T11:11:20.243Z,14.30
2023-02-08T11:16:27.400Z,13.13
2023-02-08T11:21:33.701Z,15.83
2023-02-08T11:26:38.780Z,13.20
2023-02-08T11:31:59.293Z,12.73
2023-02-08T11:37:06.530Z,13.07
2023-02-08T11:42:20.775Z,12.33
2023-02-08T11:47:29.239Z,11.67
2023-02-08T11:52:35.495Z,10.07
2023-02-08T11:57:53.984Z,10.47
2023-02-08T12:03:01.164Z,10.80
2023-02-08T12:08:12.529Z,11.93
2023-02-08T12:13:42.072Z,11.17
2023-02-08T12:19:06.342Z,10.73
2023-02-08T12:24:19.802Z,11.13
2023-02-08T12:29:48.357Z,12.20
2023-02-08T12:35:06.343Z,11.70
2023-02-08T12:40:41.390Z,11.90
2023-02-08T12:46:07.987Z,12.20
2023-02-08T12:51:24.126Z,12.60
2023-02-08T12:56:32.792Z,12.40
2023-02-08T13:01:40.462Z,12.53
2023-02-08T13:06:49.494Z,13.17
2023-02-08T13:11:58.750Z,12.27
2023-02-08T13:17:11.003Z,13.93
2023-02-08T13:22:17.187Z,12.57
2023-02-08T13:27:22.234Z,11.87
2023-02-08T13:32:30.449Z,11.97
2023-02-08T13:37:36.929Z,14.23
2023-02-08T13:42:43.691Z,11.93
2023-02-08T13:47:52.022Z,12.67
2023-02-08T13:52:56.517Z,10.80
2023-02-08T13:58:00.753Z,11.90
2023-02-08T14:03:20.802Z,11.57
2023-02-08T14:08:32.060Z,12.40
2023-02-08T14:13:39.070Z,12.23
2023-02-08T14:18:52.820Z,10.93
2023-02-08T14:24:03.913Z,11.07
2023-02-08T14:29:08.057Z,11.10
2023-02-08T14:34:35.064Z,11.20
2023-02-08T14:39:39.717Z,10.13
2023-02-08T14:44:48.979Z,10.80
2023-02-08T14:50:02.913Z,11.23
2023-02-08T14:55:14.500Z,9.80
2023-02-08T15:00:23.034Z,9.83
2023-02-08T15:05:31.090Z,10.17
2023-02-08T15:10:36.246Z,9.83
2023-02-08T15:15:42.069Z,8.53
2023-02-08T15:20:46.288Z,10.30
2023-02-08T15:25:58.795Z,11.03
2023-02-08T15:31:05.200Z,9.73
2023-02-08T15:36:15.765Z,10.27
2023-02-08T15:41:27.811Z,9.47
2023-02-08T15:46:31.850Z,10.00
2023-02-08T15:51:35.242Z,10.87
2023-02-08T15:56:42.507Z,10.63
2023-02-08T16:01:48.490Z,11.67
2023-02-08T16:06:54.955Z,10.13
2023-02-08T16:12:01.568Z,9.30
2023-02-08T16:17:04.872Z,10.43
2023-02-08T16:22:26.687Z,9.90
2023-02-08T16:27:33.811Z,9.53
2023-02-08T16:32:39.637Z,9.77
2023-02-08T16:37:43.384Z,9.50
2023-02-08T16:42:47.880Z,11.53
2023-02-08T16:47:53.262Z,7.90
2023-02-08T16:53:00.091Z,8.70
2023-02-08T16:58:04.569Z,9.93
2023-02-08T17:03:07.666Z,9.67
2023-02-08T17:08:16.631Z,10.67
2023-02-08T17:13:24.356Z,9.83
2023-02-08T17:18:27.890Z,9.73
2023-02-08T17:23:31.054Z,9.70
2023-02-08T17:28:38.538Z,10.97
2023-02-08T17:33:42.301Z,10.87
2023-02-08T17:38:46.784Z,10.10
2023-02-08T17:43:53.537Z,9.13
2023-02-08T17:48:56.618Z,9.07
2023-02-08T17:53:59.739Z,10.17
2023-02-08T17:59:05.656Z,10.50
2023-02-08T18:04:11.199Z,10.73
2023-02-08T18:09:14.323Z,8.93
2023-02-08T18:14:20.411Z,8.83
2023-02-08T18:19:23.625Z,8.97
2023-02-08T18:24:27.347Z,7.30
2023-02-08T18:29:31.812Z,6.20
2023-02-08T18:34:35.108Z,10.03
2023-02-08T18:39:38.551Z,8.07
2023-02-08T18:44:43.258Z,7.70
2023-02-08T18:49:47.721Z,7.40
2023-02-08T18:54:51.005Z,9.00
2023-02-08T18:59:56.096Z,9.07
2023-02-08T19:04:59.331Z,9.50
2023-02-08T19:10:02.726Z,10.27
2023-02-08T19:15:08.186Z,8.27
2023-02-08T19:20:12.189Z,12.00
2023-02-08T19:25:15.303Z,7.27
2023-02-08T19:30:21.921Z,6.90
2023-02-08T19:35:25.130Z,6.17
2023-02-08T19:40:28.288Z,7.53
2023-02-08T19:45:32.877Z,7.40
2023-02-08T19:50:36.032Z,4.90
2023-02-08T19:55:39.257Z,5.17
2023-02-08T20:00:43.942Z,15.73
2023-02-08T20:05:47.766Z,16.03
2023-02-08T20:10:51.059Z,12.87
2023-02-08T20:15:59.764Z,6.17
2023-02-08T20:21:03.858Z,4.40
2023-02-08T20:26:09.923Z,5.20
2023-02-08T20:31:16.880Z,4.97
2023-02-08T20:36:22.160Z,4.63
2023-02-08T20:41:27.801Z,5.43
2023-02-08T20:46:34.697Z,5.00
2023-02-08T20:51:38.154Z,5.63
2023-02-08T20:56:41.408Z,8.53
2023-02-08T21:01:50.118Z,6.17
2023-02-08T21:06:53.783Z,5.13
2023-02-08T21:11:57.128Z,5.97
2023-02-08T21:17:01.913Z,5.43
2023-02-08T21:22:07.583Z,4.87
2023-02-08T21:27:10.780Z,4.73
2023-02-08T21:32:15.305Z,5.37
2023-02-08T21:37:18.443Z,4.47
2023-02-08T21:42:21.594Z,5.30
2023-02-08T21:47:26.334Z,4.73
2023-02-08T21:52:46.648Z,4.20
2023-02-08T21:57:49.788Z,4.73
2023-02-08T22:02:54.343Z,6.73
2023-02-08T22:07:59.297Z,4.77
2023-02-08T22:13:02.559Z,4.47
2023-02-08T22:18:07.345Z,4.00
2023-02-08T22:23:10.510Z,4.63
2023-02-08T22:28:13.804Z,4.93
2023-02-08T22:33:18.318Z,5.80
2023-02-08T22:38:21.506Z,4.37
2023-02-08T22:43:24.662Z,4.37
2023-02-08T22:48:29.440Z,8.13
2023-02-08T22:53:32.562Z,5.93
2023-02-08T22:58:35.784Z,5.17
2023-02-08T23:03:42.609Z,4.20
2023-02-08T23:08:46.071Z,5.43
2023-02-08T23:13:49.200Z,5.37
2023-02-08T23:18:53.814Z,4.80
2023-02-08T23:23:57.123Z,5.70
2023-02-08T23:29:00.312Z,4.73
2023-02-08T23:34:04.799Z,4.20
2023-02-08T23:39:07.955Z,4.00
2023-02-08T23:44:11.076Z,3.23
2023-02-08T23:49:15.542Z,3.63
2023-02-08T23:54:18.635Z,3.77
2023-02-08T23:59:21.779Z,4.47
